sensor_id;sensor_type;location;lat;lon;timestamp;P1;durP1;ratioP1;P2;durP2;ratioP2
3083;SDS011;1552;51.952;7.618;2022-08-19T00:02:22;8.98;;;6.32;;
3083;SDS011;1552;51.952;7.618;2022-08-19T00:04:49;9.63;;;5.90;;
3083;SDS011;1552;51.952;7.618;2022-08-19T00:07:17;7.07;;;5.78;;
3083;SDS011;1552;51.952;7.618;2022-08-19T00:09:43;8.73;;;5.75;;
3083;SDS011;1552;51.952;7.618;2022-08-19T00:12:10;7.53;;;6.75;;
3083;SDS011;1552;51.952;7.618;2022-08-19T00:14:38;8.73;;;6.90;;
3083;SDS011;1552;51.952;7.618;2022-08-19T00:17:06;9.23;;;6.30;;
3083;SDS011;1552;51.952;7.618;2022-08-19T00:19:33;10.25;;;5.68;;
3083;SDS011;1552;51.952;7.618;2022-08-19T00:22:00;7.10;;;6.40;;
3083;SDS011;1552;51.952;7.618;2022-08-19T00:24:27;7.78;;;5.93;;
3083;SDS011;1552;51.952;7.618;2022-08-19T00:26:53;7.63;;;5.75;;
3083;SDS011;1552;51.952;7.618;2022-08-19T00:29:20;9.35;;;6.93;;
3083;SDS011;1552;51.952;7.618;2022-08-19T00:31:48;9.48;;;6.60;;
3083;SDS011;1552;51.952;7.618;2022-08-19T00:34:18;10.65;;;7.38;;
3083;SDS011;1552;51.952;7.618;2022-08-19T00:36:44;9.23;;;6.25;;
3083;SDS011;1552;51.952;7.618;2022-08-19T00:39:11;8.82;;;6.10;;
3083;SDS011;1552;51.952;7.618;2022-08-19T00:41:37;8.80;;;7.28;;
3083;SDS011;1552;51.952;7.618;2022-08-19T00:44:04;8.85;;;7.20;;
3083;SDS011;1552;51.952;7.618;2022-08-19T00:46:31;9.50;;;5.53;;
3083;SDS011;1552;51.952;7.618;2022-08-19T00:49:00;10.70;;;6.68;;
3083;SDS011;1552;51.952;7.618;2022-08-19T00:51:28;10.73;;;7.63;;
3083;SDS011;1552;51.952;7.618;2022-08-19T00:53:57;9.15;;;7.55;;
3083;SDS011;1552;51.952;7.618;2022-08-19T00:56:26;8.93;;;7.05;;
3083;SDS011;1552;51.952;7.618;2022-08-19T00:58:53;12.13;;;7.25;;
3083;SDS011;1552;51.952;7.618;2022-08-19T01:01:20;11.02;;;7.63;;
3083;SDS011;1552;51.952;7.618;2022-08-19T01:03:46;10.85;;;7.65;;
3083;SDS011;1552;51.952;7.618;2022-08-19T01:06:14;10.23;;;7.50;;
3083;SDS011;1552;51.952;7.618;2022-08-19T01:08:40;11.05;;;8.18;;
3083;SDS011;1552;51.952;7.618;2022-08-19T01:11:06;10.65;;;7.70;;
3083;SDS011;1552;51.952;7.618;2022-08-19T01:13:33;13.90;;;8.23;;
3083;SDS011;1552;51.952;7.618;2022-08-19T01:16:00;10.65;;;8.40;;
3083;SDS011;1552;51.952;7.618;2022-08-19T01:18:28;16.75;;;9.95;;
3083;SDS011;1552;51.952;7.618;2022-08-19T01:20:55;13.88;;;9.18;;
3083;SDS011;1552;51.952;7.618;2022-08-19T01:23:23;14.25;;;8.05;;
3083;SDS011;1552;51.952;7.618;2022-08-19T01:26:07;9.10;;;7.65;;
3083;SDS011;1552;51.952;7.618;2022-08-19T01:28:35;9.43;;;7.75;;
3083;SDS011;1552;51.952;7.618;2022-08-19T01:31:02;12.63;;;8.32;;
3083;SDS011;1552;51.952;7.618;2022-08-19T01:33:28;10.55;;;8.02;;
3083;SDS011;1552;51.952;7.618;2022-08-19T01:36:02;15.05;;;8.93;;
3083;SDS011;1552;51.952;7.618;2022-08-19T01:38:30;13.07;;;8.68;;
3083;SDS011;1552;51.952;7.618;2022-08-19T01:40:56;13.15;;;8.10;;
3083;SDS011;1552;51.952;7.618;2022-08-19T01:43:23;10.90;;;7.53;;
3083;SDS011;1552;51.952;7.618;2022-08-19T01:45:49;12.93;;;8.38;;
3083;SDS011;1552;51.952;7.618;2022-08-19T01:48:17;9.68;;;7.97;;
3083;SDS011;1552;51.952;7.618;2022-08-19T01:50:43;10.18;;;7.63;;
3083;SDS011;1552;51.952;7.618;2022-08-19T01:53:10;13.05;;;8.20;;
3083;SDS011;1552;51.952;7.618;2022-08-19T01:55:39;10.07;;;7.35;;
3083;SDS011;1552;51.952;7.618;2022-08-19T01:58:06;10.75;;;8.50;;
3083;SDS011;1552;51.952;7.618;2022-08-19T02:00:33;12.68;;;8.65;;
3083;SDS011;1552;51.952;7.618;2022-08-19T02:03:00;14.45;;;9.15;;
3083;SDS011;1552;51.952;7.618;2022-08-19T02:05:26;12.60;;;8.95;;
3083;SDS011;1552;51.952;7.618;2022-08-19T02:07:54;11.20;;;8.18;;
3083;SDS011;1552;51.952;7.618;2022-08-19T02:10:21;11.25;;;8.35;;
3083;SDS011;1552;51.952;7.618;2022-08-19T02:12:49;10.63;;;8.63;;
3083;SDS011;1552;51.952;7.618;2022-08-19T02:15:15;12.13;;;8.35;;
3083;SDS011;1552;51.952;7.618;2022-08-19T02:17:43;12.75;;;9.13;;
3083;SDS011;1552;51.952;7.618;2022-08-19T02:20:10;13.63;;;9.40;;
3083;SDS011;1552;51.952;7.618;2022-08-19T02:22:38;11.52;;;7.78;;
3083;SDS011;1552;51.952;7.618;2022-08-19T02:25:06;12.90;;;8.00;;
3083;SDS011;1552;51.952;7.618;2022-08-19T02:27:33;12.68;;;8.73;;
3083;SDS011;1552;51.952;7.618;2022-08-19T02:30:01;10.52;;;8.02;;
3083;SDS011;1552;51.952;7.618;2022-08-19T02:32:27;12.23;;;8.02;;
3083;SDS011;1552;51.952;7.618;2022-08-19T02:34:55;11.15;;;8.57;;
3083;SDS011;1552;51.952;7.618;2022-08-19T02:37:21;9.93;;;7.53;;
3083;SDS011;1552;51.952;7.618;2022-08-19T02:40:05;12.32;;;8.50;;
3083;SDS011;1552;51.952;7.618;2022-08-19T02:42:32;14.68;;;8.77;;
3083;SDS011;1552;51.952;7.618;2022-08-19T02:44:58;12.20;;;8.75;;
3083;SDS011;1552;51.952;7.618;2022-08-19T02:47:26;9.60;;;8.32;;
3083;SDS011;1552;51.952;7.618;2022-08-19T02:49:52;13.77;;;8.63;;
3083;SDS011;1552;51.952;7.618;2022-08-19T02:52:19;12.00;;;8.98;;
3083;SDS011;1552;51.952;7.618;2022-08-19T02:54:45;11.85;;;8.65;;
3083;SDS011;1552;51.952;7.618;2022-08-19T02:57:11;11.82;;;9.35;;
3083;SDS011;1552;51.952;7.618;2022-08-19T02:59:37;14.73;;;10.15;;
3083;SDS011;1552;51.952;7.618;2022-08-19T03:02:04;12.50;;;9.63;;
3083;SDS011;1552;51.952;7.618;2022-08-19T03:04:32;12.20;;;9.73;;
3083;SDS011;1552;51.952;7.618;2022-08-19T03:06:58;14.27;;;10.82;;
3083;SDS011;1552;51.952;7.618;2022-08-19T03:09:25;12.45;;;10.25;;
3083;SDS011;1552;51.952;7.618;2022-08-19T03:11:51;15.65;;;11.05;;
3083;SDS011;1552;51.952;7.618;2022-08-19T03:14:17;12.40;;;9.82;;
3083;SDS011;1552;51.952;7.618;2022-08-19T03:16:45;11.75;;;9.52;;
3083;SDS011;1552;51.952;7.618;2022-08-19T03:19:11;12.75;;;10.27;;
3083;SDS011;1552;51.952;7.618;2022-08-19T03:21:39;12.82;;;10.07;;
3083;SDS011;1552;51.952;7.618;2022-08-19T03:24:07;12.30;;;10.15;;
3083;SDS011;1552;51.952;7.618;2022-08-19T03:26:33;13.10;;;11.02;;
3083;SDS011;1552;51.952;7.618;2022-08-19T03:29:01;16.33;;;11.32;;
3083;SDS011;1552;51.952;7.618;2022-08-19T03:31:27;12.52;;;10.07;;
3083;SDS011;1552;51.952;7.618;2022-08-19T03:33:54;15.10;;;11.20;;
3083;SDS011;1552;51.952;7.618;2022-08-19T03:36:21;12.60;;;11.30;;
3083;SDS011;1552;51.952;7.618;2022-08-19T03:38:59;18.17;;;13.98;;
3083;SDS011;1552;51.952;7.618;2022-08-19T03:41:26;13.55;;;12.15;;
3083;SDS011;1552;51.952;7.618;2022-08-19T03:43:53;15.85;;;12.30;;
3083;SDS011;1552;51.952;7.618;2022-08-19T03:46:20;16.10;;;13.27;;
3083;SDS011;1552;51.952;7.618;2022-08-19T03:48:47;15.30;;;12.60;;
3083;SDS011;1552;51.952;7.618;2022-08-19T03:51:15;15.38;;;13.38;;
3083;SDS011;1552;51.952;7.618;2022-08-19T03:53:41;16.60;;;12.93;;
3083;SDS011;1552;51.952;7.618;2022-08-19T03:56:09;19.15;;;14.63;;
3083;SDS011;1552;51.952;7.618;2022-08-19T03:58:35;17.90;;;13.60;;
3083;SDS011;1552;51.952;7.618;2022-08-19T04:01:02;18.20;;;14.10;;
3083;SDS011;1552;51.952;7.618;2022-08-19T04:03:29;17.33;;;14.68;;
3083;SDS011;1552;51.952;7.618;2022-08-19T04:05:55;18.05;;;14.95;;
3083;SDS011;1552;51.952;7.618;2022-08-19T04:08:21;18.10;;;14.43;;
3083;SDS011;1552;51.952;7.618;2022-08-19T04:10:48;16.33;;;13.77;;
3083;SDS011;1552;51.952;7.618;2022-08-19T04:13:16;20.33;;;15.32;;
3083;SDS011;1552;51.952;7.618;2022-08-19T04:15:43;21.05;;;16.08;;
3083;SDS011;1552;51.952;7.618;2022-08-19T04:18:11;19.80;;;15.82;;
3083;SDS011;1552;51.952;7.618;2022-08-19T04:20:38;17.45;;;14.68;;
3083;SDS011;1552;51.952;7.618;2022-08-19T04:23:05;23.35;;;15.80;;
3083;SDS011;1552;51.952;7.618;2022-08-19T04:25:34;17.40;;;15.00;;
3083;SDS011;1552;51.952;7.618;2022-08-19T04:28:00;20.17;;;15.57;;
3083;SDS011;1552;51.952;7.618;2022-08-19T04:30:28;22.88;;;15.75;;
3083;SDS011;1552;51.952;7.618;2022-08-19T04:32:54;20.23;;;15.63;;
3083;SDS011;1552;51.952;7.618;2022-08-19T04:35:20;19.75;;;15.43;;
3083;SDS011;1552;51.952;7.618;2022-08-19T04:37:47;17.98;;;15.70;;
3083;SDS011;1552;51.952;7.618;2022-08-19T04:40:13;19.75;;;15.70;;
3083;SDS011;1552;51.952;7.618;2022-08-19T04:42:57;19.45;;;14.77;;
3083;SDS011;1552;51.952;7.618;2022-08-19T04:45:23;25.23;;;16.92;;
3083;SDS011;1552;51.952;7.618;2022-08-19T04:47:54;21.90;;;16.40;;
3083;SDS011;1552;51.952;7.618;2022-08-19T04:50:21;20.83;;;15.13;;
3083;SDS011;1552;51.952;7.618;2022-08-19T04:52:49;25.23;;;16.77;;
3083;SDS011;1552;51.952;7.618;2022-08-19T04:55:16;20.30;;;16.58;;
3083;SDS011;1552;51.952;7.618;2022-08-19T04:57:43;20.73;;;16.13;;
3083;SDS011;1552;51.952;7.618;2022-08-19T05:00:09;21.13;;;16.83;;
3083;SDS011;1552;51.952;7.618;2022-08-19T05:02:36;22.33;;;17.25;;
3083;SDS011;1552;51.952;7.618;2022-08-19T05:05:04;22.55;;;16.90;;
3083;SDS011;1552;51.952;7.618;2022-08-19T05:07:31;21.23;;;16.02;;
3083;SDS011;1552;51.952;7.618;2022-08-19T05:09:57;21.20;;;16.38;;
3083;SDS011;1552;51.952;7.618;2022-08-19T05:12:24;22.83;;;16.10;;
3083;SDS011;1552;51.952;7.618;2022-08-19T05:14:50;22.35;;;17.67;;
3083;SDS011;1552;51.952;7.618;2022-08-19T05:17:17;19.38;;;16.50;;
3083;SDS011;1552;51.952;7.618;2022-08-19T05:19:43;19.80;;;16.13;;
3083;SDS011;1552;51.952;7.618;2022-08-19T05:22:28;21.10;;;16.40;;
3083;SDS011;1552;51.952;7.618;2022-08-19T05:25:00;18.98;;;14.32;;
3083;SDS011;1552;51.952;7.618;2022-08-19T05:27:26;22.75;;;16.85;;
3083;SDS011;1552;51.952;7.618;2022-08-19T05:29:53;20.55;;;15.68;;
3083;SDS011;1552;51.952;7.618;2022-08-19T05:32:19;19.38;;;14.82;;
3083;SDS011;1552;51.952;7.618;2022-08-19T05:34:46;21.00;;;15.60;;
3083;SDS011;1552;51.952;7.618;2022-08-19T05:37:13;19.83;;;15.50;;
3083;SDS011;1552;51.952;7.618;2022-08-19T05:39:40;20.92;;;15.65;;
3083;SDS011;1552;51.952;7.618;2022-08-19T05:42:08;21.42;;;15.95;;
3083;SDS011;1552;51.952;7.618;2022-08-19T05:44:36;19.83;;;16.05;;
3083;SDS011;1552;51.952;7.618;2022-08-19T05:47:03;18.80;;;15.43;;
3083;SDS011;1552;51.952;7.618;2022-08-19T05:49:31;19.80;;;16.75;;
3083;SDS011;1552;51.952;7.618;2022-08-19T05:51:58;21.38;;;15.52;;
3083;SDS011;1552;51.952;7.618;2022-08-19T05:54:27;22.33;;;15.95;;
3083;SDS011;1552;51.952;7.618;2022-08-19T05:56:54;20.05;;;15.02;;
3083;SDS011;1552;51.952;7.618;2022-08-19T05:59:21;24.98;;;16.83;;
3083;SDS011;1552;51.952;7.618;2022-08-19T06:01:48;24.63;;;15.57;;
3083;SDS011;1552;51.952;7.618;2022-08-19T06:04:16;18.33;;;15.00;;
3083;SDS011;1552;51.952;7.618;2022-08-19T06:06:43;24.80;;;16.60;;
3083;SDS011;1552;51.952;7.618;2022-08-19T06:09:10;22.98;;;15.98;;
3083;SDS011;1552;51.952;7.618;2022-08-19T06:11:37;23.02;;;15.65;;
3083;SDS011;1552;51.952;7.618;2022-08-19T06:14:06;22.15;;;15.20;;
3083;SDS011;1552;51.952;7.618;2022-08-19T06:16:33;22.67;;;15.15;;
3083;SDS011;1552;51.952;7.618;2022-08-19T06:19:01;25.25;;;16.20;;
3083;SDS011;1552;51.952;7.618;2022-08-19T06:21:28;25.42;;;17.55;;
3083;SDS011;1552;51.952;7.618;2022-08-19T06:23:54;27.00;;;17.13;;
3083;SDS011;1552;51.952;7.618;2022-08-19T06:26:22;22.88;;;16.88;;
3083;SDS011;1552;51.952;7.618;2022-08-19T06:28:49;25.40;;;16.30;;
3083;SDS011;1552;51.952;7.618;2022-08-19T06:31:18;25.77;;;17.02;;
3083;SDS011;1552;51.952;7.618;2022-08-19T06:33:45;24.92;;;17.15;;
3083;SDS011;1552;51.952;7.618;2022-08-19T06:36:18;27.00;;;16.35;;
3083;SDS011;1552;51.952;7.618;2022-08-19T06:38:44;22.73;;;16.40;;
3083;SDS011;1552;51.952;7.618;2022-08-19T06:41:11;24.48;;;16.88;;
3083;SDS011;1552;51.952;7.618;2022-08-19T06:43:37;27.35;;;16.55;;
3083;SDS011;1552;51.952;7.618;2022-08-19T06:46:04;22.15;;;16.17;;
3083;SDS011;1552;51.952;7.618;2022-08-19T06:48:37;21.23;;;16.23;;
3083;SDS011;1552;51.952;7.618;2022-08-19T06:51:03;19.30;;;14.02;;
3083;SDS011;1552;51.952;7.618;2022-08-19T06:53:30;21.65;;;16.42;;
3083;SDS011;1552;51.952;7.618;2022-08-19T06:55:57;20.90;;;16.70;;
3083;SDS011;1552;51.952;7.618;2022-08-19T06:58:25;24.30;;;17.65;;
3083;SDS011;1552;51.952;7.618;2022-08-19T07:00:51;26.25;;;17.50;;
3083;SDS011;1552;51.952;7.618;2022-08-19T07:03:18;28.75;;;17.17;;
3083;SDS011;1552;51.952;7.618;2022-08-19T07:05:46;24.90;;;17.55;;
3083;SDS011;1552;51.952;7.618;2022-08-19T07:08:12;26.35;;;18.63;;
3083;SDS011;1552;51.952;7.618;2022-08-19T07:10:41;24.25;;;18.00;;
3083;SDS011;1552;51.952;7.618;2022-08-19T07:13:08;28.30;;;18.10;;
3083;SDS011;1552;51.952;7.618;2022-08-19T07:15:35;26.13;;;17.10;;
3083;SDS011;1552;51.952;7.618;2022-08-19T07:18:02;27.83;;;19.15;;
3083;SDS011;1552;51.952;7.618;2022-08-19T07:20:30;21.13;;;15.65;;
3083;SDS011;1552;51.952;7.618;2022-08-19T07:22:59;28.00;;;18.50;;
3083;SDS011;1552;51.952;7.618;2022-08-19T07:25:25;25.83;;;17.00;;
3083;SDS011;1552;51.952;7.618;2022-08-19T07:27:52;24.33;;;16.20;;
3083;SDS011;1552;51.952;7.618;2022-08-19T07:30:18;26.35;;;16.98;;
3083;SDS011;1552;51.952;7.618;2022-08-19T07:32:45;28.52;;;17.48;;
3083;SDS011;1552;51.952;7.618;2022-08-19T07:35:11;22.33;;;15.48;;
3083;SDS011;1552;51.952;7.618;2022-08-19T07:37:37;23.52;;;17.02;;
3083;SDS011;1552;51.952;7.618;2022-08-19T07:40:11;20.75;;;15.45;;
3083;SDS011;1552;51.952;7.618;2022-08-19T07:42:37;23.92;;;16.90;;
3083;SDS011;1552;51.952;7.618;2022-08-19T07:45:05;17.42;;;14.77;;
3083;SDS011;1552;51.952;7.618;2022-08-19T07:47:32;22.38;;;16.15;;
3083;SDS011;1552;51.952;7.618;2022-08-19T07:49:59;20.15;;;15.25;;
3083;SDS011;1552;51.952;7.618;2022-08-19T07:52:26;22.95;;;15.85;;
3083;SDS011;1552;51.952;7.618;2022-08-19T07:54:52;28.85;;;16.08;;
3083;SDS011;1552;51.952;7.618;2022-08-19T07:57:20;22.33;;;15.60;;
3083;SDS011;1552;51.952;7.618;2022-08-19T07:59:46;20.60;;;15.50;;
3083;SDS011;1552;51.952;7.618;2022-08-19T08:02:12;26.52;;;16.00;;
3083;SDS011;1552;51.952;7.618;2022-08-19T08:04:39;20.73;;;14.77;;
3083;SDS011;1552;51.952;7.618;2022-08-19T08:07:22;18.23;;;14.48;;
3083;SDS011;1552;51.952;7.618;2022-08-19T08:10:06;13.48;;;12.07;;
3083;SDS011;1552;51.952;7.618;2022-08-19T08:12:35;17.50;;;13.57;;
3083;SDS011;1552;51.952;7.618;2022-08-19T08:15:07;20.50;;;13.77;;
3083;SDS011;1552;51.952;7.618;2022-08-19T08:17:34;20.23;;;14.43;;
3083;SDS011;1552;51.952;7.618;2022-08-19T08:20:02;18.92;;;14.52;;
3083;SDS011;1552;51.952;7.618;2022-08-19T08:22:28;18.08;;;13.25;;
3083;SDS011;1552;51.952;7.618;2022-08-19T08:25:13;18.48;;;14.07;;
3083;SDS011;1552;51.952;7.618;2022-08-19T08:27:41;21.15;;;14.40;;
3083;SDS011;1552;51.952;7.618;2022-08-19T08:30:08;20.50;;;15.90;;
3083;SDS011;1552;51.952;7.618;2022-08-19T08:32:35;20.95;;;14.50;;
3083;SDS011;1552;51.952;7.618;2022-08-19T08:35:02;20.52;;;13.88;;
3083;SDS011;1552;51.952;7.618;2022-08-19T08:37:29;20.80;;;13.40;;
3083;SDS011;1552;51.952;7.618;2022-08-19T08:39:55;12.43;;;11.13;;
3083;SDS011;1552;51.952;7.618;2022-08-19T08:42:22;16.13;;;12.45;;
3083;SDS011;1552;51.952;7.618;2022-08-19T08:44:53;18.92;;;13.45;;
3083;SDS011;1552;51.952;7.618;2022-08-19T08:47:21;14.45;;;11.90;;
3083;SDS011;1552;51.952;7.618;2022-08-19T08:49:50;16.42;;;11.80;;
3083;SDS011;1552;51.952;7.618;2022-08-19T08:52:19;15.50;;;11.43;;
3083;SDS011;1552;51.952;7.618;2022-08-19T08:54:48;16.05;;;11.63;;
3083;SDS011;1552;51.952;7.618;2022-08-19T08:57:18;16.13;;;12.25;;
3083;SDS011;1552;51.952;7.618;2022-08-19T08:59:46;17.55;;;13.90;;
3083;SDS011;1552;51.952;7.618;2022-08-19T09:02:17;13.55;;;10.82;;
3083;SDS011;1552;51.952;7.618;2022-08-19T09:04:43;13.13;;;10.32;;
3083;SDS011;1552;51.952;7.618;2022-08-19T09:07:16;12.30;;;8.68;;
3083;SDS011;1552;51.952;7.618;2022-08-19T09:09:46;12.48;;;10.20;;
3083;SDS011;1552;51.952;7.618;2022-08-19T09:12:16;10.85;;;9.40;;
3083;SDS011;1552;51.952;7.618;2022-08-19T09:14:46;11.48;;;9.35;;
3083;SDS011;1552;51.952;7.618;2022-08-19T09:17:14;12.13;;;8.63;;
3083;SDS011;1552;51.952;7.618;2022-08-19T09:19:50;9.07;;;8.10;;
3083;SDS011;1552;51.952;7.618;2022-08-19T09:22:17;10.30;;;8.32;;
3083;SDS011;1552;51.952;7.618;2022-08-19T09:24:46;8.75;;;7.00;;
3083;SDS011;1552;51.952;7.618;2022-08-19T09:27:13;7.38;;;5.85;;
3083;SDS011;1552;51.952;7.618;2022-08-19T09:29:39;6.72;;;6.03;;
3083;SDS011;1552;51.952;7.618;2022-08-19T09:32:05;7.38;;;5.60;;
3083;SDS011;1552;51.952;7.618;2022-08-19T09:34:32;5.50;;;4.35;;
3083;SDS011;1552;51.952;7.618;2022-08-19T09:36:59;7.03;;;5.20;;
3083;SDS011;1552;51.952;7.618;2022-08-19T09:39:26;7.18;;;5.20;;
3083;SDS011;1552;51.952;7.618;2022-08-19T09:41:52;6.15;;;3.95;;
3083;SDS011;1552;51.952;7.618;2022-08-19T09:44:18;5.63;;;4.53;;
3083;SDS011;1552;51.952;7.618;2022-08-19T09:46:45;7.68;;;4.57;;
3083;SDS011;1552;51.952;7.618;2022-08-19T09:49:12;5.10;;;4.60;;
3083;SDS011;1552;51.952;7.618;2022-08-19T09:51:39;6.38;;;5.75;;
3083;SDS011;1552;51.952;7.618;2022-08-19T09:54:07;6.88;;;5.40;;
3083;SDS011;1552;51.952;7.618;2022-08-19T09:56:33;6.20;;;5.60;;
3083;SDS011;1552;51.952;7.618;2022-08-19T09:59:00;7.82;;;6.00;;
3083;SDS011;1552;51.952;7.618;2022-08-19T10:01:27;7.00;;;6.13;;
3083;SDS011;1552;51.952;7.618;2022-08-19T10:03:54;6.35;;;5.28;;
3083;SDS011;1552;51.952;7.618;2022-08-19T10:06:21;4.60;;;4.10;;
3083;SDS011;1552;51.952;7.618;2022-08-19T10:08:47;6.05;;;5.30;;
3083;SDS011;1552;51.952;7.618;2022-08-19T10:11:15;7.43;;;4.60;;
3083;SDS011;1552;51.952;7.618;2022-08-19T10:13:42;8.65;;;4.82;;
3083;SDS011;1552;51.952;7.618;2022-08-19T10:16:09;5.90;;;5.30;;
3083;SDS011;1552;51.952;7.618;2022-08-19T10:18:36;6.63;;;5.00;;
3083;SDS011;1552;51.952;7.618;2022-08-19T10:21:05;5.63;;;5.03;;
3083;SDS011;1552;51.952;7.618;2022-08-19T10:23:33;6.00;;;5.40;;
3083;SDS011;1552;51.952;7.618;2022-08-19T10:26:00;5.65;;;4.78;;
3083;SDS011;1552;51.952;7.618;2022-08-19T10:28:28;5.97;;;5.38;;
3083;SDS011;1552;51.952;7.618;2022-08-19T10:30:55;5.72;;;4.97;;
3083;SDS011;1552;51.952;7.618;2022-08-19T10:33:21;5.57;;;5.07;;
3083;SDS011;1552;51.952;7.618;2022-08-19T10:35:49;7.70;;;5.45;;
3083;SDS011;1552;51.952;7.618;2022-08-19T10:38:24;6.07;;;5.13;;
3083;SDS011;1552;51.952;7.618;2022-08-19T10:40:50;6.95;;;4.57;;
3083;SDS011;1552;51.952;7.618;2022-08-19T10:43:18;5.55;;;4.00;;
3083;SDS011;1552;51.952;7.618;2022-08-19T10:45:49;4.30;;;3.90;;
3083;SDS011;1552;51.952;7.618;2022-08-19T10:48:17;4.43;;;3.50;;
3083;SDS011;1552;51.952;7.618;2022-08-19T10:50:43;5.20;;;3.80;;
3083;SDS011;1552;51.952;7.618;2022-08-19T10:53:27;4.60;;;4.20;;
3083;SDS011;1552;51.952;7.618;2022-08-19T10:55:54;5.72;;;3.80;;
3083;SDS011;1552;51.952;7.618;2022-08-19T10:58:37;4.07;;;3.70;;
3083;SDS011;1552;51.952;7.618;2022-08-19T11:01:05;4.70;;;3.53;;
3083;SDS011;1552;51.952;7.618;2022-08-19T11:03:31;3.70;;;3.40;;
3083;SDS011;1552;51.952;7.618;2022-08-19T11:05:58;5.90;;;4.13;;
3083;SDS011;1552;51.952;7.618;2022-08-19T11:08:25;5.25;;;3.97;;
3083;SDS011;1552;51.952;7.618;2022-08-19T11:10:52;4.78;;;4.10;;
3083;SDS011;1552;51.952;7.618;2022-08-19T11:13:22;5.75;;;4.68;;
3083;SDS011;1552;51.952;7.618;2022-08-19T11:15:55;4.88;;;4.38;;
3083;SDS011;1552;51.952;7.618;2022-08-19T11:18:23;4.45;;;4.05;;
3083;SDS011;1552;51.952;7.618;2022-08-19T11:20:50;4.50;;;4.10;;
3083;SDS011;1552;51.952;7.618;2022-08-19T11:23:16;4.25;;;3.55;;
3083;SDS011;1552;51.952;7.618;2022-08-19T11:25:42;4.78;;;4.28;;
3083;SDS011;1552;51.952;7.618;2022-08-19T11:28:10;4.53;;;4.13;;
3083;SDS011;1552;51.952;7.618;2022-08-19T11:30:36;5.65;;;4.35;;
3083;SDS011;1552;51.952;7.618;2022-08-19T11:33:03;5.20;;;4.00;;
3083;SDS011;1552;51.952;7.618;2022-08-19T11:35:31;5.10;;;4.20;;
3083;SDS011;1552;51.952;7.618;2022-08-19T11:37:58;5.03;;;4.05;;
3083;SDS011;1552;51.952;7.618;2022-08-19T11:40:26;6.68;;;4.60;;
3083;SDS011;1552;51.952;7.618;2022-08-19T11:42:52;4.13;;;3.70;;
3083;SDS011;1552;51.952;7.618;2022-08-19T11:45:22;5.05;;;4.47;;
3083;SDS011;1552;51.952;7.618;2022-08-19T11:47:48;4.88;;;4.47;;
3083;SDS011;1552;51.952;7.618;2022-08-19T11:50:15;5.30;;;4.80;;
3083;SDS011;1552;51.952;7.618;2022-08-19T11:52:43;5.68;;;5.18;;
3083;SDS011;1552;51.952;7.618;2022-08-19T11:55:10;5.75;;;5.25;;
3083;SDS011;1552;51.952;7.618;2022-08-19T11:57:36;4.80;;;4.35;;
3083;SDS011;1552;51.952;7.618;2022-08-19T12:00:03;5.40;;;4.70;;
3083;SDS011;1552;51.952;7.618;2022-08-19T12:02:31;6.32;;;5.72;;
3083;SDS011;1552;51.952;7.618;2022-08-19T12:04:57;9.90;;;6.80;;
3083;SDS011;1552;51.952;7.618;2022-08-19T12:07:23;8.15;;;6.18;;
3083;SDS011;1552;51.952;7.618;2022-08-19T12:09:51;7.32;;;6.57;;
3083;SDS011;1552;51.952;7.618;2022-08-19T12:12:17;8.25;;;7.40;;
3083;SDS011;1552;51.952;7.618;2022-08-19T12:14:45;7.65;;;6.63;;
3083;SDS011;1552;51.952;7.618;2022-08-19T12:17:12;7.97;;;7.22;;
3083;SDS011;1552;51.952;7.618;2022-08-19T12:19:38;8.32;;;7.53;;
3083;SDS011;1552;51.952;7.618;2022-08-19T12:22:05;9.45;;;7.45;;
3083;SDS011;1552;51.952;7.618;2022-08-19T12:24:32;7.90;;;7.15;;
3083;SDS011;1552;51.952;7.618;2022-08-19T12:27:01;10.45;;;7.30;;
3083;SDS011;1552;51.952;7.618;2022-08-19T12:29:28;9.77;;;6.80;;
3083;SDS011;1552;51.952;7.618;2022-08-19T12:31:54;10.27;;;9.23;;
3083;SDS011;1552;51.952;7.618;2022-08-19T12:34:25;9.18;;;7.30;;
3083;SDS011;1552;51.952;7.618;2022-08-19T12:36:54;8.65;;;7.47;;
3083;SDS011;1552;51.952;7.618;2022-08-19T12:39:21;8.57;;;7.10;;
3083;SDS011;1552;51.952;7.618;2022-08-19T12:41:48;9.13;;;7.07;;
3083;SDS011;1552;51.952;7.618;2022-08-19T12:44:16;8.38;;;7.05;;
3083;SDS011;1552;51.952;7.618;2022-08-19T12:46:42;7.68;;;6.72;;
3083;SDS011;1552;51.952;7.618;2022-08-19T12:49:08;6.78;;;6.18;;
3083;SDS011;1552;51.952;7.618;2022-08-19T12:51:35;6.47;;;5.88;;
3083;SDS011;1552;51.952;7.618;2022-08-19T12:54:01;8.55;;;6.25;;
3083;SDS011;1552;51.952;7.618;2022-08-19T12:56:28;7.90;;;6.53;;
3083;SDS011;1552;51.952;7.618;2022-08-19T12:58:54;9.85;;;6.55;;
3083;SDS011;1552;51.952;7.618;2022-08-19T13:01:22;9.23;;;5.63;;
3083;SDS011;1552;51.952;7.618;2022-08-19T13:03:49;6.53;;;5.03;;
3083;SDS011;1552;51.952;7.618;2022-08-19T13:06:17;8.32;;;5.88;;
3083;SDS011;1552;51.952;7.618;2022-08-19T13:08:43;6.70;;;5.82;;
3083;SDS011;1552;51.952;7.618;2022-08-19T13:11:10;5.65;;;5.10;;
3083;SDS011;1552;51.952;7.618;2022-08-19T13:13:38;4.97;;;4.50;;
3083;SDS011;1552;51.952;7.618;2022-08-19T13:16:06;5.78;;;4.43;;
3083;SDS011;1552;51.952;7.618;2022-08-19T13:18:34;6.40;;;4.20;;
3083;SDS011;1552;51.952;7.618;2022-08-19T13:21:01;5.50;;;4.35;;
3083;SDS011;1552;51.952;7.618;2022-08-19T13:23:29;5.80;;;5.20;;
3083;SDS011;1552;51.952;7.618;2022-08-19T13:25:55;4.75;;;4.35;;
3083;SDS011;1552;51.952;7.618;2022-08-19T13:28:22;6.78;;;4.78;;
3083;SDS011;1552;51.952;7.618;2022-08-19T13:30:48;8.25;;;6.82;;
3083;SDS011;1552;51.952;7.618;2022-08-19T13:33:35;7.32;;;6.28;;
3083;SDS011;1552;51.952;7.618;2022-08-19T13:36:01;7.00;;;5.50;;
3083;SDS011;1552;51.952;7.618;2022-08-19T13:38:32;6.25;;;5.65;;
3083;SDS011;1552;51.952;7.618;2022-08-19T13:41:03;5.68;;;5.15;;
3083;SDS011;1552;51.952;7.618;2022-08-19T13:43:30;9.95;;;5.55;;
3083;SDS011;1552;51.952;7.618;2022-08-19T13:45:56;5.50;;;4.65;;
3083;SDS011;1552;51.952;7.618;2022-08-19T13:48:23;7.28;;;5.63;;
3083;SDS011;1552;51.952;7.618;2022-08-19T13:50:51;6.85;;;6.20;;
3083;SDS011;1552;51.952;7.618;2022-08-19T13:53:19;6.18;;;5.57;;
3083;SDS011;1552;51.952;7.618;2022-08-19T13:55:45;7.25;;;6.03;;
3083;SDS011;1552;51.952;7.618;2022-08-19T13:58:11;8.07;;;5.68;;
3083;SDS011;1552;51.952;7.618;2022-08-19T14:00:40;6.43;;;5.60;;
3083;SDS011;1552;51.952;7.618;2022-08-19T14:03:07;8.13;;;5.78;;
3083;SDS011;1552;51.952;7.618;2022-08-19T14:05:33;6.03;;;5.53;;
3083;SDS011;1552;51.952;7.618;2022-08-19T14:08:01;6.63;;;6.03;;
3083;SDS011;1552;51.952;7.618;2022-08-19T14:10:27;5.68;;;5.15;;
3083;SDS011;1552;51.952;7.618;2022-08-19T14:12:56;6.13;;;5.60;;
3083;SDS011;1552;51.952;7.618;2022-08-19T14:15:23;5.70;;;4.97;;
3083;SDS011;1552;51.952;7.618;2022-08-19T14:17:50;6.22;;;5.60;;
3083;SDS011;1552;51.952;7.618;2022-08-19T14:20:17;6.53;;;5.93;;
3083;SDS011;1552;51.952;7.618;2022-08-19T14:22:43;6.07;;;5.45;;
3083;SDS011;1552;51.952;7.618;2022-08-19T14:25:13;6.90;;;5.57;;
3083;SDS011;1552;51.952;7.618;2022-08-19T14:27:39;5.80;;;5.20;;
3083;SDS011;1552;51.952;7.618;2022-08-19T14:30:07;6.63;;;5.40;;
3083;SDS011;1552;51.952;7.618;2022-08-19T14:32:34;7.55;;;5.38;;
3083;SDS011;1552;51.952;7.618;2022-08-19T14:35:00;6.20;;;5.50;;
3083;SDS011;1552;51.952;7.618;2022-08-19T14:37:27;7.88;;;5.07;;
3083;SDS011;1552;51.952;7.618;2022-08-19T14:39:53;6.10;;;5.13;;
3083;SDS011;1552;51.952;7.618;2022-08-19T14:42:21;6.18;;;5.43;;
3083;SDS011;1552;51.952;7.618;2022-08-19T14:44:47;6.30;;;5.70;;
3083;SDS011;1552;51.952;7.618;2022-08-19T14:47:13;6.85;;;4.60;;
3083;SDS011;1552;51.952;7.618;2022-08-19T14:49:40;6.82;;;5.53;;
3083;SDS011;1552;51.952;7.618;2022-08-19T14:52:06;8.75;;;5.57;;
3083;SDS011;1552;51.952;7.618;2022-08-19T14:54:32;7.05;;;5.63;;
3083;SDS011;1552;51.952;7.618;2022-08-19T14:56:59;7.68;;;5.30;;
3083;SDS011;1552;51.952;7.618;2022-08-19T14:59:26;5.90;;;5.25;;
3083;SDS011;1552;51.952;7.618;2022-08-19T15:01:53;6.65;;;5.40;;
3083;SDS011;1552;51.952;7.618;2022-08-19T15:04:19;6.90;;;5.28;;
3083;SDS011;1552;51.952;7.618;2022-08-19T15:06:46;5.35;;;4.85;;